createdAt,value
2018-06-10T00:00:13.703Z,97424.98
2018-06-10T00:02:45.986Z,97417.94
2018-06-10T00:05:21.632Z,97411.45
2018-06-10T00:11:14.595Z,97406.06
2018-06-10T00:13:46.486Z,97413.98
2018-06-10T00:16:18.475Z,97425.41
2018-06-10T00:18:50.571Z,97423.20
2018-06-10T00:21:22.093Z,97423.14
2018-06-10T00:23:54.635Z,97422.91
2018-06-10T00:26:26.418Z,97423.92
2018-06-10T00:29:03.289Z,97425.72
2018-06-10T00:31:35.757Z,97428.69
2018-06-10T00:34:07.688Z,97423.55
2018-06-10T00:36:40.037Z,97430.81
2018-06-10T00:39:11.886Z,97428.58
2018-06-10T00:41:44.576Z,97430.30
2018-06-10T00:44:16.438Z,97431.22
2018-06-10T00:46:48.244Z,97434.05
2018-06-10T00:49:20.170Z,97431.65
2018-06-10T00:51:51.927Z,97430.05
2018-06-10T00:54:23.745Z,97431.11
2018-06-10T00:56:56.054Z,97428.67
2018-06-10T00:59:28.067Z,97420.97
2018-06-10T01:01:59.930Z,97420.71
2018-06-10T01:04:31.989Z,97421.35
2018-06-10T01:07:04.504Z,97411.47
2018-06-10T01:09:36.005Z,97411.80
2018-06-10T01:12:07.768Z,97422.45
2018-06-10T01:14:40.226Z,97426.78
2018-06-10T01:17:12.386Z,97422.98
2018-06-10T01:19:43.976Z,97428.70
2018-06-10T01:22:15.606Z,97428.14
2018-06-10T01:24:47.467Z,97426.80
2018-06-10T01:27:19.367Z,97422.44
2018-06-10T01:29:51.295Z,97419.73
2018-06-10T01:32:22.692Z,97420.30
2018-06-10T01:34:54.335Z,97421.65
2018-06-10T01:37:26.278Z,97419.73
2018-06-10T01:39:58.075Z,97423.53
2018-06-10T01:42:29.874Z,97426.52
2018-06-10T01:45:01.623Z,97424.62
2018-06-10T01:47:33.562Z,97421.09
2018-06-10T01:50:05.363Z,97419.19
2018-06-10T01:52:37.244Z,97416.22
2018-06-10T01:55:09.177Z,97422.44
2018-06-10T01:57:41.180Z,97423.48
2018-06-10T02:00:15.026Z,97421.30
2018-06-10T02:02:47.221Z,97422.97
2018-06-10T02:05:21.876Z,97424.03
2018-06-10T02:07:53.451Z,97424.33
2018-06-10T02:10:26.185Z,97419.19
2018-06-10T02:12:58.044Z,97418.41
2018-06-10T02:15:29.789Z,97418.11
2018-06-10T02:18:01.695Z,97421.38
2018-06-10T02:20:33.630Z,97417.04
2018-06-10T02:23:06.318Z,97409.70
2018-06-10T02:25:38.168Z,97410.78
2018-06-10T02:28:10.134Z,97401.60
2018-06-10T02:30:42.270Z,97411.08
2018-06-10T02:33:14.096Z,97409.98
2018-06-10T02:35:45.985Z,97401.84
2018-06-10T02:38:17.475Z,97407.54
2018-06-10T02:40:49.171Z,97409.97
2018-06-10T02:43:21.045Z,97403.48
2018-06-10T02:45:53.027Z,97406.18
2018-06-10T02:48:25.914Z,97404.53
2018-06-10T02:50:57.860Z,97403.73
2018-06-10T02:53:29.798Z,97402.64
2018-06-10T02:56:01.538Z,97398.55
2018-06-10T02:58:33.340Z,97401.24
2018-06-10T03:01:05.407Z,97401.20
2018-06-10T03:03:37.629Z,97414.17
2018-06-10T03:06:09.430Z,97416.69
2018-06-10T03:08:41.230Z,97418.28
2018-06-10T03:11:13.028Z,97417.03
2018-06-10T03:13:44.870Z,97422.44
2018-06-10T03:16:16.143Z,97423.77
2018-06-10T03:18:47.358Z,97423.20
2018-06-10T03:21:19.086Z,97423.72
2018-06-10T03:23:50.990Z,97432.46
2018-06-10T03:26:22.984Z,97428.14
2018-06-10T03:28:55.927Z,97430.05
2018-06-10T03:31:28.711Z,97428.67
2018-06-10T03:34:00.565Z,97431.95
2018-06-10T03:36:33.083Z,97433.30
2018-06-10T03:39:06.659Z,97430.31
2018-06-10T03:41:38.966Z,97434.91
2018-06-10T03:44:10.878Z,97436.55
2018-06-10T03:46:45.559Z,97437.08
2018-06-10T03:49:17.362Z,97423.53
2018-06-10T03:51:50.067Z,97429.47
2018-06-10T03:54:21.342Z,97425.94
2018-06-10T03:56:53.084Z,97421.33
2018-06-10T03:59:24.780Z,97418.12
2018-06-10T04:01:57.443Z,97417.86
2018-06-10T04:04:29.329Z,97426.23
2018-06-10T04:07:01.151Z,97434.36
2018-06-10T04:09:33.962Z,97439.52
2018-06-10T04:12:06.019Z,97440.84
2018-06-10T04:14:39.085Z,97437.23
2018-06-10T04:17:11.223Z,97438.48
2018-06-10T04:19:43.577Z,97433.69
2018-06-10T04:22:15.824Z,97431.64
2018-06-10T04:24:47.751Z,97436.05
2018-06-10T04:27:19.603Z,97433.37
2018-06-10T04:29:51.671Z,97433.85
2018-06-10T04:32:23.662Z,97432.91
2018-06-10T04:34:55.658Z,97425.02
2018-06-10T04:37:27.551Z,97427.20
2018-06-10T04:39:59.485Z,97432.63
2018-06-10T04:42:31.433Z,97441.84
2018-06-10T04:45:03.665Z,97444.55
2018-06-10T04:47:35.936Z,97436.44
2018-06-10T04:50:07.937Z,97437.70
2018-06-10T04:52:40.721Z,97445.25
2018-06-10T04:55:15.597Z,97441.08
2018-06-10T04:57:47.382Z,97436.11
2018-06-10T05:00:21.012Z,97436.55
2018-06-10T05:02:52.989Z,97433.20
2018-06-10T05:05:27.339Z,97433.64
2018-06-10T05:07:59.804Z,97436.53
2018-06-10T05:10:31.839Z,97439.49
2018-06-10T05:13:03.776Z,97444.77
2018-06-10T05:15:35.199Z,97445.63
2018-06-10T05:18:06.524Z,97441.98
2018-06-10T05:20:38.875Z,97441.09
2018-06-10T05:23:10.718Z,97442.51
2018-06-10T05:25:42.635Z,97444.33
2018-06-10T05:28:14.699Z,97439.77
2018-06-10T05:30:46.574Z,97438.09
2018-06-10T05:33:19.067Z,97447.69
2018-06-10T05:35:51.043Z,97448.93
2018-06-10T05:38:23.039Z,97446.77
2018-06-10T05:40:54.996Z,97444.14
2018-06-10T05:43:27.389Z,97448.61
2018-06-10T05:45:59.282Z,97454.14
2018-06-10T05:48:30.549Z,97453.13
2018-06-10T05:51:02.220Z,97447.84
2018-06-10T05:53:34.687Z,97450.25
2018-06-10T05:56:08.445Z,97456.63
2018-06-10T05:58:40.872Z,97464.56
2018-06-10T06:01:12.855Z,97460.90
2018-06-10T06:03:44.816Z,97459.03
2018-06-10T06:06:17.714Z,97463.14
2018-06-10T06:08:50.271Z,97462.06
2018-06-10T06:11:22.203Z,97462.95
2018-06-10T06:13:53.490Z,97463.95
2018-06-10T06:16:25.305Z,97462.41
2018-06-10T06:18:57.300Z,97458.72
2018-06-10T06:21:29.201Z,97456.81
2018-06-10T06:24:01.117Z,97466.14
2018-06-10T06:26:33.264Z,97476.06
2018-06-10T06:29:05.171Z,97459.57
2018-06-10T06:31:37.214Z,97463.40
2018-06-10T06:34:09.938Z,97479.94
2018-06-10T06:36:41.921Z,97466.48
2018-06-10T06:39:14.400Z,97466.73
2018-06-10T06:41:47.039Z,97467.38
2018-06-10T06:44:19.524Z,97462.06
2018-06-10T06:46:50.856Z,97467.41
2018-06-10T06:49:24.854Z,97463.49
2018-06-10T06:51:57.184Z,97471.42
2018-06-10T06:54:28.733Z,97471.77
2018-06-10T06:57:00.530Z,97470.81
2018-06-10T06:59:33.378Z,97473.38
2018-06-10T07:02:04.797Z,97471.71
2018-06-10T07:04:37.211Z,97472.88
2018-06-10T07:07:08.517Z,97472.13
2018-06-10T07:09:40.884Z,97467.98
2018-06-10T07:12:12.780Z,97460.80
2018-06-10T07:14:44.098Z,97462.49
2018-06-10T13:18:29.624Z,97263.67
2018-06-10T13:21:01.052Z,97258.47
2018-06-10T13:23:32.228Z,97257.05
2018-06-10T13:26:05.261Z,97254.28
2018-06-10T13:28:37.881Z,97249.66
2018-06-10T13:31:12.576Z,97244.88
2018-06-10T13:33:44.557Z,97247.96
2018-06-10T13:36:16.532Z,97243.32
2018-06-10T13:39:06.182Z,97242.80
2018-06-10T13:41:41.161Z,97239.97
2018-06-10T13:44:13.419Z,97234.84
2018-06-10T13:46:45.211Z,97234.73
2018-06-10T13:49:17.179Z,97235.75
2018-06-10T13:51:49.493Z,97234.63
2018-06-10T13:54:25.106Z,97223.92
2018-06-10T13:57:00.795Z,97224.40
2018-06-10T13:59:33.147Z,97226.84
2018-06-10T14:02:05.121Z,97223.81
2018-06-10T14:04:37.516Z,97218.31
2018-06-10T14:07:57.923Z,97214.76
2018-06-10T14:14:52.696Z,97222.31
2018-06-10T14:17:53.049Z,97214.36
2018-06-10T14:20:25.061Z,97217.95
2018-06-10T14:22:56.403Z,97220.53
2018-06-10T14:25:31.015Z,97215.34
2018-06-10T14:28:03.715Z,97210.13
2018-06-10T14:30:37.622Z,97203.52
2018-06-10T14:33:10.845Z,97202.13
2018-06-10T14:35:42.647Z,97208.67
2018-06-10T14:38:15.060Z,97214.28
2018-06-10T14:40:46.211Z,97211.20
2018-06-10T14:43:19.337Z,97200.42
2018-06-10T14:45:51.319Z,97199.04
2018-06-10T14:48:25.111Z,97202.08
2018-06-10T14:50:58.246Z,97202.95
2018-06-10T14:53:31.168Z,97191.03
2018-06-10T14:56:03.590Z,97193.36
2018-06-10T14:58:36.833Z,97200.36
2018-06-10T15:02:06.816Z,97204.09
2018-06-10T15:08:50.007Z,97194.67
2018-06-10T15:11:22.147Z,97196.68
2018-06-10T15:13:54.068Z,97190.08
2018-06-10T15:16:25.968Z,97187.59
2018-06-10T15:18:57.922Z,97192.89
2018-06-10T15:21:29.868Z,97186.63
2018-06-10T15:24:01.775Z,97195.42
2018-06-10T15:26:34.154Z,97185.03
2018-06-10T15:29:07.394Z,97181.45
2018-06-10T15:31:39.780Z,97178.69
2018-06-10T15:34:11.243Z,97186.27
2018-06-10T15:36:43.265Z,97194.77
2018-06-10T15:39:15.614Z,97186.64
2018-06-10T15:41:47.335Z,97183.91
2018-06-10T15:44:19.340Z,97183.70
2018-06-10T15:46:53.528Z,97178.95
2018-06-10T15:49:26.384Z,97178.02
2018-06-10T15:51:58.475Z,97175.08
2018-06-10T15:54:29.690Z,97178.28
2018-06-10T15:57:01.734Z,97169.90
2018-06-10T15:59:34.408Z,97167.08
2018-06-10T16:02:05.996Z,97165.06
2018-06-10T16:04:38.519Z,97163.68
2018-06-10T16:07:10.693Z,97163.84
2018-06-10T16:09:42.956Z,97162.16
2018-06-10T16:12:15.293Z,97167.50
2018-06-10T16:14:47.277Z,97160.58
2018-06-10T16:17:18.595Z,97162.00
2018-06-10T16:19:50.476Z,97156.75
2018-06-10T16:22:22.677Z,97157.45
2018-06-10T16:24:53.951Z,97158.34
2018-06-10T16:27:26.403Z,97159.22
2018-06-10T16:29:59.133Z,97156.63
2018-06-10T16:32:31.146Z,97154.38
2018-06-10T16:35:03.084Z,97149.61
2018-06-10T16:37:34.533Z,97152.62
2018-06-10T16:40:06.409Z,97155.74
2018-06-10T16:42:38.203Z,97156.85
2018-06-10T16:45:09.276Z,97155.98
2018-06-10T16:47:41.248Z,97153.39
2018-06-10T16:50:14.652Z,97153.67
2018-06-10T16:52:46.793Z,97154.60
2018-06-10T16:55:18.804Z,97153.58
2018-06-10T16:57:51.176Z,97151.78
2018-06-10T17:00:22.953Z,97148.14
2018-06-10T17:02:54.769Z,97151.78
2018-06-10T17:05:26.609Z,97151.33
2018-06-10T17:07:58.634Z,97149.25
2018-06-10T17:10:30.095Z,97146.31
2018-06-10T17:13:01.975Z,97155.71
2018-06-10T17:15:34.010Z,97148.73
2018-06-10T17:18:05.963Z,97146.30
2018-06-10T17:20:38.451Z,97147.42
2018-06-10T17:23:11.483Z,97143.22
2018-06-10T17:25:43.261Z,97140.36
2018-06-10T17:28:15.291Z,97138.17
2018-06-10T17:30:47.306Z,97142.67
2018-06-10T17:33:19.214Z,97139.70
2018-06-10T17:35:50.898Z,97138.06
2018-06-10T17:38:22.735Z,97139.00
2018-06-10T17:40:54.495Z,97132.70
2018-06-10T17:43:26.866Z,97136.73
2018-06-10T17:45:58.884Z,97135.72
2018-06-10T17:48:30.739Z,97136.33
2018-06-10T17:51:02.504Z,97138.73
2018-06-10T17:53:34.010Z,97141.85
2018-06-10T17:56:05.737Z,97136.23
2018-06-10T17:58:37.754Z,97141.88
2018-06-10T18:01:09.794Z,97145.91
2018-06-10T18:03:41.976Z,97154.33
2018-06-10T18:06:13.866Z,97164.92
2018-06-10T18:08:45.868Z,97163.97
2018-06-10T18:11:17.332Z,97165.33
2018-06-10T18:13:49.047Z,97166.33
2018-06-10T18:16:20.954Z,97162.08
2018-06-10T18:18:52.950Z,97167.39
2018-06-10T18:21:24.775Z,97162.13
2018-06-10T18:23:56.792Z,97163.84
2018-06-10T18:26:29.389Z,97171.28
2018-06-10T18:29:01.423Z,97166.89
2018-06-10T18:31:33.376Z,97161.98
2018-06-10T18:34:05.606Z,97164.19
2018-06-10T18:36:37.452Z,97164.16
2018-06-10T18:39:10.506Z,97169.18
2018-06-10T18:41:42.464Z,97168.94
2018-06-10T18:44:14.498Z,97168.59
2018-06-10T18:46:46.382Z,97175.50
2018-06-10T18:49:18.267Z,97186.97
2018-06-10T18:51:50.054Z,97188.36
2018-06-10T18:54:22.053Z,97187.21
2018-06-10T18:56:54.015Z,97195.83
2018-06-10T18:59:26.343Z,97194.17
2018-06-10T19:01:59.287Z,97203.28
2018-06-10T19:04:31.052Z,97196.34
2018-06-10T19:07:02.746Z,97197.38
2018-06-10T19:09:35.271Z,97206.94
2018-06-10T19:12:07.516Z,97215.96
2018-06-10T19:14:39.425Z,97215.66
2018-06-10T19:17:11.955Z,97220.95
2018-06-10T19:19:43.263Z,97223.61
2018-06-10T19:22:15.224Z,97229.41
2018-06-10T19:24:48.069Z,97233.58
2018-06-10T19:27:20.084Z,97237.88
2018-06-10T19:29:51.588Z,97243.08
2018-06-10T19:32:23.312Z,97244.58
2018-06-10T19:34:56.351Z,97246.77
2018-06-10T19:37:28.335Z,97249.30
2018-06-10T19:40:00.929Z,97251.02
2018-06-10T19:42:32.919Z,97249.98
2018-06-10T19:45:05.702Z,97253.94
2018-06-10T19:47:37.735Z,97260.97
2018-06-10T19:50:10.583Z,97253.03
2018-06-10T19:52:42.828Z,97250.77
2018-06-10T19:55:17.498Z,97250.84
2018-06-10T19:57:51.120Z,97250.77
2018-06-10T20:00:22.849Z,97248.53
2018-06-10T20:02:54.703Z,97248.80
2018-06-10T20:05:26.660Z,97247.78
2018-06-10T20:07:59.362Z,97241.22
2018-06-10T20:10:31.451Z,97241.70
2018-06-10T20:13:03.585Z,97238.20
2018-06-10T20:15:37.621Z,97238.23
2018-06-10T20:18:09.384Z,97240.64
2018-06-10T20:20:42.580Z,97238.50
2018-06-10T20:23:15.194Z,97236.39
2018-06-10T20:25:48.323Z,97230.83
2018-06-10T20:28:19.792Z,97233.98
2018-06-10T20:30:51.517Z,97228.59
2018-06-10T20:33:23.390Z,97225.06
2018-06-10T20:35:55.494Z,97230.44
2018-06-10T20:38:28.180Z,97216.34
2018-06-10T20:41:00.411Z,97216.73
2018-06-10T20:43:33.417Z,97233.20
2018-06-10T20:46:05.779Z,97240.95
2018-06-10T20:49:01.053Z,97241.93
2018-06-10T20:51:34.714Z,97243.42
2018-06-10T20:54:06.676Z,97243.09
2018-06-10T20:56:40.136Z,97238.92
2018-06-10T20:59:12.031Z,97238.09
2018-06-10T21:01:43.919Z,97236.84
2018-06-10T21:04:16.108Z,97248.23
2018-06-10T21:06:48.294Z,97248.64
2018-06-10T21:09:21.426Z,97243.56
2018-06-10T21:11:53.224Z,97247.48
2018-06-10T21:14:25.238Z,97243.09
2018-06-10T21:16:57.263Z,97243.58
2018-06-10T21:19:30.926Z,97240.36
2018-06-10T21:22:02.507Z,97246.48
2018-06-10T21:24:34.221Z,97252.61
2018-06-10T21:27:06.857Z,97243.18
2018-06-10T21:29:39.212Z,97255.04
2018-06-10T21:32:11.172Z,97252.06
2018-06-10T21:34:43.074Z,97254.81
2018-06-10T21:37:17.088Z,97252.73
2018-06-10T21:39:49.423Z,97260.80
2018-06-10T21:42:21.654Z,97260.25
2018-06-10T21:44:56.192Z,97261.70
2018-06-10T21:47:30.123Z,97263.21
2018-06-10T21:50:02.967Z,97265.72
2018-06-10T21:52:42.613Z,97268.89
2018-06-10T21:55:18.301Z,97274.20
2018-06-10T21:57:53.360Z,97277.78
2018-06-10T22:00:27.830Z,97272.80
2018-06-10T22:03:02.385Z,97279.04
2018-06-10T22:05:35.012Z,97271.54
2018-06-10T22:08:13.955Z,97272.97
2018-06-10T22:10:45.926Z,97281.48
2018-06-10T22:13:18.243Z,97283.59
2018-06-10T22:15:49.515Z,97285.06
2018-06-10T22:18:21.311Z,97301.13
2018-06-10T22:20:53.332Z,97304.22
2018-06-10T22:23:25.295Z,97305.50
2018-06-10T22:25:57.298Z,97306.59
2018-06-10T22:28:29.434Z,97304.23
2018-06-10T22:31:01.473Z,97298.95
2018-06-10T22:33:33.412Z,97294.67
2018-06-10T22:36:12.194Z,97296.45
2018-06-10T22:38:44.497Z,97291.67
2018-06-10T22:41:16.548Z,97293.77
2018-06-10T22:43:49.328Z,97294.61
2018-06-10T22:46:21.477Z,97293.04
2018-06-10T22:48:53.454Z,97282.55
2018-06-10T22:51:25.563Z,97289.53
2018-06-10T22:55:00.682Z,97283.67
2018-06-10T22:57:32.693Z,97283.59
2018-06-10T23:00:04.741Z,97278.17
2018-06-10T23:02:36.904Z,97282.60
2018-06-10T23:05:09.163Z,97286.83
2018-06-10T23:07:41.763Z,97290.48
2018-06-10T23:10:15.706Z,97293.92
2018-06-10T23:12:47.088Z,97300.56
2018-06-10T23:15:19.027Z,97299.45
2018-06-10T23:17:51.123Z,97298.20
2018-06-10T23:20:23.414Z,97294.89
2018-06-10T23:22:55.492Z,97294.53
2018-06-10T23:25:27.551Z,97294.09
2018-06-10T23:27:59.504Z,97302.37
2018-06-10T23:30:31.733Z,97293.88
2018-06-10T23:33:03.671Z,97290.26
2018-06-10T23:35:35.280Z,97289.66
2018-06-10T23:38:09.091Z,97301.05
2018-06-10T23:40:41.903Z,97289.48
2018-06-10T23:43:13.920Z,97295.13
2018-06-10T23:45:45.763Z,97287.56
2018-06-10T23:48:18.061Z,97288.05
2018-06-10T23:50:50.034Z,97286.27
2018-06-10T23:53:21.593Z,97283.11
2018-06-10T23:55:53.705Z,97280.74
2018-06-10T23:58:25.151Z,97274.86
